TAF Text Data
IDs:
Format:
Raw Decoded Include METAR

Data at: 1750 UTC 20 May 2022

RPLL 201700Z VRB02KT 9999 FEW023 OVC100 25/24 Q1009 NOSIG RMK A2980

TAF RPLL 201700Z 2018/2124 27006KT 9999 FEW023 BKN100 TX32/2106Z TN24/2021Z
  TEMPO 2018/2024 22004KT -RA SCT020 OVC090
  TEMPO 2100/2106 VRB04KT -RA SCT023 OVC090